createdAt,value
2023-05-20T00:01:42.519Z,9.50
2023-05-20T00:04:09.570Z,9.40
2023-05-20T00:06:36.656Z,9.40
2023-05-20T00:09:03.764Z,9.20
2023-05-20T00:11:31.469Z,9.30
2023-05-20T00:13:58.415Z,9.10
2023-05-20T00:16:25.530Z,9.10
2023-05-20T00:18:52.581Z,9.00
2023-05-20T00:21:19.660Z,9.00
2023-05-20T00:23:46.607Z,9.00
2023-05-20T00:26:13.640Z,9.00
2023-05-20T00:28:40.609Z,9.00
2023-05-20T00:31:07.599Z,9.10
2023-05-20T00:33:36.373Z,9.20
2023-05-20T00:36:03.431Z,9.20
2023-05-20T00:38:30.515Z,9.10
2023-05-20T00:40:57.422Z,9.10
2023-05-20T00:43:25.559Z,9.20
2023-05-20T00:45:54.217Z,9.20
2023-05-20T00:48:22.164Z,9.20
2023-05-20T00:50:50.587Z,9.20
2023-05-20T00:53:21.448Z,9.20
2023-05-20T00:55:48.711Z,9.20
2023-05-20T00:58:15.898Z,9.20
2023-05-20T01:00:43.407Z,9.20
2023-05-20T01:03:11.053Z,9.30
2023-05-20T01:05:39.924Z,9.30
2023-05-20T01:08:09.220Z,9.30
2023-05-20T01:10:46.681Z,9.30
2023-05-20T01:13:17.519Z,9.40
2023-05-20T01:15:48.441Z,9.30
2023-05-20T01:18:18.415Z,9.30
2023-05-20T01:20:49.814Z,9.40
2023-05-20T01:23:17.349Z,9.40
2023-05-20T01:25:44.334Z,9.40
2023-05-20T01:28:17.884Z,9.30
2023-05-20T01:30:52.666Z,9.30
2023-05-20T01:33:22.008Z,9.40
2023-05-20T01:35:49.173Z,9.40
2023-05-20T01:38:17.953Z,9.40
2023-05-20T01:40:46.344Z,9.40
2023-05-20T01:43:16.226Z,9.40
2023-05-20T01:45:45.011Z,9.40
2023-05-20T01:48:12.465Z,9.40
2023-05-20T01:50:39.736Z,9.40
2023-05-20T01:53:09.613Z,9.40
2023-05-20T01:55:36.631Z,9.50
2023-05-20T01:58:03.799Z,9.50
2023-05-20T02:00:34.149Z,9.50
2023-05-20T02:03:01.651Z,9.60
2023-05-20T02:05:28.614Z,9.50
2023-05-20T02:07:55.726Z,9.50
2023-05-20T02:10:22.647Z,9.50
2023-05-20T02:12:49.664Z,9.60
2023-05-20T02:15:16.645Z,9.60
2023-05-20T02:17:47.201Z,9.60
2023-05-20T02:20:14.223Z,9.60
2023-05-20T02:22:41.377Z,9.70
2023-05-20T02:25:09.477Z,9.70
2023-05-20T02:27:36.528Z,9.70
2023-05-20T02:30:03.560Z,9.70
2023-05-20T02:32:30.594Z,9.70
2023-05-20T02:34:57.581Z,9.60
2023-05-20T02:37:24.598Z,9.70
2023-05-20T02:39:51.669Z,9.70
2023-05-20T02:42:18.667Z,9.60
2023-05-20T02:44:45.633Z,9.60
2023-05-20T02:47:12.569Z,9.50
2023-05-20T02:49:39.535Z,9.50
2023-05-20T02:52:06.826Z,9.50
2023-05-20T02:54:34.062Z,9.50
2023-05-20T02:57:01.032Z,9.50
2023-05-20T02:59:27.975Z,9.50
2023-05-20T03:01:54.977Z,9.60
2023-05-20T03:04:22.111Z,9.60
2023-05-20T03:06:49.155Z,9.70
2023-05-20T03:09:16.105Z,9.60
2023-05-20T03:11:43.194Z,9.70
2023-05-20T03:14:10.136Z,9.70
2023-05-20T03:16:37.149Z,9.80
2023-05-20T03:19:04.119Z,9.80
2023-05-20T03:21:31.169Z,9.90
2023-05-20T03:23:58.094Z,9.90
2023-05-20T03:26:25.822Z,9.90
2023-05-20T03:28:52.800Z,10.00
2023-05-20T03:31:20.125Z,10.00
2023-05-20T03:33:47.135Z,10.10
2023-05-20T03:36:14.258Z,10.10
2023-05-20T03:38:41.449Z,10.10
2023-05-20T03:41:08.519Z,10.10
2023-05-20T03:43:35.690Z,10.10
2023-05-20T03:46:02.685Z,10.20
2023-05-20T03:48:29.692Z,10.30
2023-05-20T03:50:56.604Z,10.50
2023-05-20T03:53:23.613Z,10.40
2023-05-20T03:55:50.705Z,10.50
2023-05-20T03:58:17.680Z,10.50
2023-05-20T04:00:44.681Z,10.60
2023-05-20T04:03:11.852Z,10.60
2023-05-20T04:05:39.258Z,10.70
2023-05-20T04:08:06.195Z,10.80
2023-05-20T04:10:33.856Z,10.90
2023-05-20T04:13:00.791Z,11.00
2023-05-20T04:15:29.868Z,11.00
2023-05-20T04:17:57.015Z,11.10
2023-05-20T04:20:24.574Z,11.20
2023-05-20T04:22:52.473Z,11.20
2023-05-20T04:25:19.762Z,11.40
2023-05-20T04:27:46.822Z,11.50
2023-05-20T04:30:14.192Z,11.50
2023-05-20T04:32:41.735Z,11.50
2023-05-20T04:35:11.870Z,11.70
2023-05-20T04:37:42.563Z,11.70
2023-05-20T04:40:10.796Z,11.90
2023-05-20T04:42:37.953Z,12.00
2023-05-20T04:45:06.073Z,12.10
2023-05-20T04:47:39.301Z,12.20
2023-05-20T04:50:10.947Z,12.20
2023-05-20T04:52:46.268Z,12.30
2023-05-20T04:55:13.746Z,12.20
2023-05-20T04:57:42.192Z,12.30
2023-05-20T05:00:11.501Z,12.20
2023-05-20T05:02:39.073Z,12.20
2023-05-20T05:05:06.862Z,12.20
2023-05-20T05:07:33.875Z,12.20
2023-05-20T05:10:01.406Z,12.20
2023-05-20T05:12:28.554Z,12.20
2023-05-20T05:14:55.466Z,12.20
2023-05-20T05:17:22.442Z,12.20
2023-05-20T05:19:49.479Z,12.30
2023-05-20T05:22:16.632Z,12.30
2023-05-20T05:24:43.560Z,12.30
2023-05-20T05:27:10.623Z,12.30
2023-05-20T05:29:37.602Z,12.30
2023-05-20T05:32:04.904Z,12.30
2023-05-20T05:34:31.852Z,12.40
2023-05-20T05:36:58.886Z,12.40
2023-05-20T05:39:25.799Z,12.50
2023-05-20T05:41:54.306Z,12.70
2023-05-20T05:44:21.256Z,12.70
2023-05-20T05:46:48.264Z,12.70
2023-05-20T05:49:15.325Z,12.80
2023-05-20T05:51:42.335Z,12.90
2023-05-20T05:54:09.390Z,12.80
2023-05-20T05:56:36.308Z,12.80
2023-05-20T05:59:04.726Z,12.70
2023-05-20T06:01:31.805Z,12.70
2023-05-20T06:03:58.928Z,12.70
2023-05-20T06:06:26.436Z,12.60
2023-05-20T06:08:53.374Z,12.60
2023-05-20T06:11:20.978Z,12.70
2023-05-20T06:13:47.923Z,12.60
2023-05-20T06:16:14.911Z,12.70
2023-05-20T06:18:41.953Z,12.60
2023-05-20T06:21:09.247Z,12.70
2023-05-20T06:23:36.210Z,12.80
2023-05-20T06:26:03.737Z,12.80
2023-05-20T06:28:31.350Z,12.80
2023-05-20T06:30:58.379Z,12.80
2023-05-20T06:33:26.329Z,12.80
2023-05-20T06:35:54.054Z,12.70
2023-05-20T06:38:21.311Z,12.70
2023-05-20T06:40:51.534Z,12.70
2023-05-20T06:43:18.679Z,12.70
2023-05-20T06:45:45.869Z,12.80
2023-05-20T06:48:12.862Z,12.90
2023-05-20T06:50:39.942Z,13.10
2023-05-20T06:53:06.904Z,13.10
2023-05-20T06:55:33.974Z,13.20
2023-05-20T06:58:01.088Z,13.50
2023-05-20T07:00:28.060Z,13.50
2023-05-20T07:02:55.105Z,13.50
2023-05-20T07:05:22.133Z,13.60
2023-05-20T07:07:49.130Z,13.70
2023-05-20T07:10:16.127Z,13.70
2023-05-20T07:12:43.088Z,14.10
2023-05-20T07:15:10.509Z,14.50
2023-05-20T07:17:37.570Z,14.60
2023-05-20T07:20:05.009Z,14.70
2023-05-20T07:22:32.179Z,14.70
2023-05-20T07:25:00.403Z,14.60
2023-05-20T07:27:27.523Z,14.80
2023-05-20T07:29:54.551Z,15.00
2023-05-20T07:32:21.644Z,15.20
2023-05-20T07:34:48.630Z,15.10
2023-05-20T07:37:16.315Z,15.20
2023-05-20T07:39:43.345Z,15.10
2023-05-20T07:42:10.491Z,14.90
2023-05-20T07:44:37.495Z,14.80
2023-05-20T07:47:04.887Z,15.20
2023-05-20T07:49:31.814Z,15.20
2023-05-20T07:52:00.436Z,15.20
2023-05-20T07:54:29.068Z,15.20
2023-05-20T07:56:56.009Z,15.20
2023-05-20T07:59:23.232Z,15.10
2023-05-20T08:01:50.229Z,15.30
2023-05-20T08:04:17.389Z,15.50
2023-05-20T08:06:44.693Z,15.50
2023-05-20T08:09:11.917Z,15.40
2023-05-20T08:11:38.881Z,15.40
2023-05-20T08:14:06.381Z,15.40
2023-05-20T08:16:33.427Z,15.50
2023-05-20T08:19:00.630Z,15.40
2023-05-20T08:25:15.368Z,15.30
2023-05-20T08:27:42.345Z,15.40
2023-05-20T08:30:10.094Z,15.60
2023-05-20T08:32:37.646Z,15.50
2023-05-20T08:35:05.513Z,15.50
2023-05-20T08:37:32.700Z,15.10
2023-05-20T08:39:59.670Z,15.40
2023-05-20T08:42:29.222Z,15.30
2023-05-20T08:44:57.573Z,15.00
2023-05-20T08:47:24.830Z,15.20
2023-05-20T08:49:51.856Z,15.40
2023-05-20T08:52:21.770Z,15.20
2023-05-20T08:54:50.239Z,15.20
2023-05-20T08:57:17.907Z,15.10
2023-05-20T08:59:51.266Z,15.00
2023-05-20T09:02:18.237Z,15.10
2023-05-20T09:04:45.396Z,15.00
2023-05-20T09:07:12.450Z,15.20
2023-05-20T09:09:39.491Z,15.40
2023-05-20T09:12:06.954Z,15.40
2023-05-20T09:14:33.902Z,15.20
2023-05-20T09:17:00.857Z,15.50
2023-05-20T09:19:28.114Z,15.60
2023-05-20T09:21:55.496Z,15.70
2023-05-20T09:24:26.732Z,16.00
2023-05-20T09:26:54.112Z,15.90
2023-05-20T09:29:22.006Z,15.70
2023-05-20T09:31:50.296Z,15.70
2023-05-20T09:34:18.007Z,15.90
2023-05-20T09:36:45.676Z,16.00
2023-05-20T09:39:19.317Z,16.10
2023-05-20T09:41:56.853Z,16.00
2023-05-20T09:44:24.106Z,16.20
2023-05-20T09:46:53.411Z,16.20
2023-05-20T09:49:23.711Z,16.20
2023-05-20T09:51:52.023Z,16.20
2023-05-20T09:54:19.984Z,16.60
2023-05-20T09:56:48.253Z,16.60
2023-05-20T09:59:21.789Z,16.30
2023-05-20T10:01:48.945Z,16.00
2023-05-20T10:04:17.478Z,15.90
2023-05-20T10:07:12.889Z,15.90
2023-05-20T10:10:17.375Z,15.90
2023-05-20T10:12:56.467Z,15.90
2023-05-20T10:15:30.923Z,15.80
2023-05-20T10:18:09.953Z,15.80
2023-05-20T10:20:47.402Z,15.30
2023-05-20T10:23:25.120Z,15.20
2023-05-20T10:25:53.789Z,15.00
2023-05-20T10:28:33.164Z,15.00
2023-05-20T10:31:01.001Z,14.80
2023-05-20T10:33:28.637Z,14.70
2023-05-20T10:36:02.735Z,14.60
2023-05-20T10:42:16.319Z,14.40
2023-05-20T10:44:45.017Z,13.90
2023-05-20T10:49:48.317Z,14.00
2023-05-20T10:52:16.994Z,13.90
2023-05-20T10:54:51.559Z,13.80
2023-05-20T10:57:19.109Z,13.80
2023-05-20T10:59:47.659Z,13.80
2023-05-20T11:02:17.150Z,13.80
2023-05-20T11:04:45.108Z,13.80
2023-05-20T11:07:12.230Z,13.90
2023-05-20T11:09:39.621Z,14.30
2023-05-20T11:12:07.009Z,14.60
2023-05-20T11:14:35.302Z,14.80
2023-05-20T11:17:02.485Z,15.20
2023-05-20T11:19:29.590Z,15.40
2023-05-20T11:21:56.764Z,15.40
2023-05-20T11:24:28.416Z,15.90
2023-05-20T11:26:57.677Z,16.10
2023-05-20T11:29:27.090Z,16.30
2023-05-20T11:31:54.040Z,16.80
2023-05-20T11:34:26.877Z,17.00
2023-05-20T11:36:59.058Z,17.30
2023-05-20T11:39:29.793Z,17.30
2023-05-20T11:41:57.686Z,17.70
2023-05-20T11:44:24.941Z,17.70
2023-05-20T11:46:52.266Z,17.30
2023-05-20T11:49:19.250Z,17.40
2023-05-20T11:51:46.256Z,17.40
2023-05-20T11:54:13.205Z,17.50
2023-05-20T11:56:43.221Z,17.60
2023-05-20T11:59:11.056Z,17.70
2023-05-20T12:01:45.982Z,18.00
2023-05-20T12:04:17.711Z,17.90
2023-05-20T12:06:44.830Z,18.00
2023-05-20T12:09:12.094Z,17.90
2023-05-20T12:11:41.662Z,18.00
2023-05-20T12:14:09.733Z,17.80
2023-05-20T12:16:38.017Z,17.40
2023-05-20T12:19:05.514Z,17.20
2023-05-20T12:21:32.597Z,17.00
2023-05-20T12:24:00.232Z,16.90
2023-05-20T12:26:29.054Z,16.80
2023-05-20T12:28:56.827Z,16.80
2023-05-20T12:31:24.580Z,16.60
2023-05-20T12:33:51.669Z,16.40
2023-05-20T12:36:19.875Z,16.30
2023-05-20T12:38:47.914Z,16.10
2023-05-20T12:41:14.840Z,16.00
2023-05-20T12:43:41.855Z,15.80
2023-05-20T12:46:08.917Z,15.90
2023-05-20T12:48:37.036Z,15.80
2023-05-20T12:51:04.246Z,15.80
2023-05-20T12:53:31.249Z,15.80
2023-05-20T12:55:58.241Z,15.70
2023-05-20T12:58:25.195Z,15.90
2023-05-20T13:00:52.221Z,16.00
2023-05-20T13:03:19.319Z,15.90
2023-05-20T13:05:46.355Z,15.80
2023-05-20T13:08:14.985Z,15.80
2023-05-20T13:10:42.153Z,15.80
2023-05-20T13:13:09.177Z,15.70
2023-05-20T13:15:36.968Z,15.60
2023-05-20T13:18:06.808Z,15.50
2023-05-20T13:20:34.166Z,15.40
2023-05-20T13:23:01.276Z,15.40
2023-05-20T13:25:28.295Z,15.50
2023-05-20T13:27:55.927Z,15.60
2023-05-20T13:30:23.276Z,15.80
2023-05-20T13:32:50.334Z,15.90
2023-05-20T13:35:17.609Z,15.90
2023-05-20T13:37:44.908Z,16.10
2023-05-20T13:40:12.458Z,16.30
2023-05-20T13:42:39.445Z,16.20
2023-05-20T13:45:07.091Z,16.40
2023-05-20T13:47:34.104Z,16.40
2023-05-20T13:50:03.095Z,16.50
2023-05-20T13:52:30.401Z,16.40
2023-05-20T13:54:57.394Z,16.40
2023-05-20T13:57:24.349Z,16.30
2023-05-20T13:59:51.352Z,16.30
2023-05-20T14:02:18.749Z,16.30
2023-05-20T14:04:47.161Z,16.60
2023-05-20T14:07:14.322Z,16.50
2023-05-20T14:09:41.467Z,16.50
2023-05-20T14:12:08.726Z,16.60
2023-05-20T14:14:35.775Z,16.70
2023-05-20T14:17:02.775Z,16.90
2023-05-20T14:19:30.221Z,17.20
2023-05-20T14:21:59.001Z,18.00
2023-05-20T14:24:25.959Z,18.90
2023-05-20T14:26:53.426Z,19.70
2023-05-20T14:29:20.560Z,20.00
2023-05-20T14:31:47.618Z,20.70
2023-05-20T14:34:14.625Z,20.30
2023-05-20T14:36:41.630Z,19.60
2023-05-20T14:39:08.613Z,19.20
2023-05-20T14:41:35.562Z,19.40
2023-05-20T14:44:02.518Z,19.50
2023-05-20T14:46:29.524Z,19.30
2023-05-20T14:48:56.569Z,19.10
2023-05-20T14:51:23.520Z,18.70
2023-05-20T14:53:50.653Z,18.80
2023-05-20T14:56:17.703Z,19.30
2023-05-20T14:58:44.681Z,19.40
2023-05-20T15:01:11.681Z,19.70
2023-05-20T15:03:38.760Z,19.60
2023-05-20T15:06:06.322Z,19.30
2023-05-20T15:08:33.277Z,19.20
2023-05-20T15:11:00.313Z,19.10
2023-05-20T15:13:27.273Z,18.90
2023-05-20T15:15:54.317Z,19.10
2023-05-20T15:18:21.324Z,19.10
2023-05-20T15:20:48.276Z,19.10
2023-05-20T15:23:17.242Z,18.80
2023-05-20T15:25:44.431Z,19.30
2023-05-20T15:28:11.365Z,19.80
2023-05-20T15:30:38.453Z,20.10
2023-05-20T15:33:05.587Z,20.10
2023-05-20T15:35:32.688Z,19.70
2023-05-20T15:37:59.727Z,19.70
2023-05-20T15:40:26.768Z,19.40
2023-05-20T15:42:53.717Z,18.90
2023-05-20T15:45:21.059Z,18.70
2023-05-20T15:47:48.137Z,18.20
2023-05-20T15:50:15.105Z,18.10
2023-05-20T15:52:42.101Z,17.80
2023-05-20T15:55:10.150Z,17.70
2023-05-20T15:57:37.166Z,17.80
2023-05-20T16:00:07.137Z,18.50
2023-05-20T16:02:36.233Z,19.20
2023-05-20T16:05:04.417Z,19.10
2023-05-20T16:07:31.497Z,18.80
2023-05-20T16:09:58.526Z,18.60
2023-05-20T16:12:25.496Z,18.60
2023-05-20T16:14:52.460Z,18.60
2023-05-20T16:17:21.478Z,18.50
2023-05-20T16:19:49.169Z,18.50
2023-05-20T16:22:17.967Z,18.40
2023-05-20T16:24:45.211Z,18.50
2023-05-20T16:27:12.224Z,18.60
2023-05-20T16:29:42.037Z,18.60
2023-05-20T16:32:09.033Z,18.50
2023-05-20T16:34:36.038Z,18.40
2023-05-20T16:37:02.990Z,18.40
2023-05-20T16:39:30.126Z,18.20
2023-05-20T16:41:57.085Z,18.20
2023-05-20T16:44:24.087Z,18.20
2023-05-20T16:46:53.370Z,18.00
2023-05-20T16:49:21.343Z,17.90
2023-05-20T16:51:48.497Z,17.80
2023-05-20T16:54:15.490Z,17.90
2023-05-20T16:56:42.451Z,17.70
2023-05-20T16:59:09.435Z,17.40
2023-05-20T17:01:37.099Z,17.10
2023-05-20T17:04:04.320Z,16.80
2023-05-20T17:06:34.373Z,16.60
2023-05-20T17:09:04.121Z,16.40
2023-05-20T17:11:31.163Z,16.30
2023-05-20T17:13:58.100Z,16.10
2023-05-20T17:16:25.242Z,16.00
2023-05-20T17:18:53.639Z,16.00
2023-05-20T17:21:20.836Z,15.90
2023-05-20T17:23:47.849Z,15.90
2023-05-20T17:26:15.530Z,15.80
2023-05-20T17:28:43.076Z,15.80
2023-05-20T17:31:10.176Z,15.80
2023-05-20T17:33:37.247Z,15.80
2023-05-20T17:36:04.601Z,15.70
2023-05-20T17:38:31.574Z,15.60
2023-05-20T17:40:58.464Z,15.60
2023-05-20T17:43:25.730Z,15.60
2023-05-20T17:45:52.788Z,15.50
2023-05-20T17:48:20.036Z,15.50
2023-05-20T17:50:47.069Z,15.50
2023-05-20T17:53:14.230Z,15.40
2023-05-20T17:55:41.184Z,15.40
2023-05-20T17:58:08.165Z,15.30
2023-05-20T18:00:42.248Z,15.20
2023-05-20T18:03:10.484Z,15.20
2023-05-20T18:05:38.092Z,15.10
2023-05-20T18:08:05.348Z,15.00
2023-05-20T18:10:32.521Z,14.90
2023-05-20T18:12:59.755Z,14.90
2023-05-20T18:15:26.743Z,14.80
2023-05-20T18:17:54.347Z,14.70
2023-05-20T18:20:21.774Z,14.70
2023-05-20T18:22:50.626Z,14.60
2023-05-20T18:25:17.865Z,14.60
2023-05-20T18:27:44.836Z,14.50
2023-05-20T18:30:11.838Z,14.50
2023-05-20T18:32:39.303Z,14.40
2023-05-20T18:35:06.905Z,14.40
2023-05-20T18:37:34.000Z,14.30
2023-05-20T18:40:01.075Z,14.20
2023-05-20T18:42:28.121Z,14.20
2023-05-20T18:44:55.235Z,14.20
2023-05-20T18:47:22.294Z,14.20
2023-05-20T18:53:30.051Z,14.20
2023-05-20T18:56:01.347Z,14.10
2023-05-20T19:02:09.256Z,14.00
2023-05-20T19:04:36.209Z,14.00
2023-05-20T19:07:03.783Z,13.90
2023-05-20T19:09:30.834Z,13.90
2023-05-20T19:11:59.182Z,13.90
2023-05-20T19:14:26.407Z,13.80
2023-05-20T19:16:53.580Z,13.80
2023-05-20T19:19:20.716Z,13.80
2023-05-20T19:21:48.228Z,13.80
2023-05-20T19:24:15.448Z,13.80
2023-05-20T19:26:42.455Z,13.80
2023-05-20T19:29:09.491Z,13.80
2023-05-20T19:31:37.172Z,13.80
2023-05-20T19:34:04.131Z,13.80
2023-05-20T19:36:31.257Z,13.70
2023-05-20T19:38:58.564Z,13.70
2023-05-20T19:41:26.179Z,13.60
2023-05-20T19:43:53.142Z,13.70
2023-05-20T19:46:20.185Z,13.60
2023-05-20T19:48:47.198Z,13.60
2023-05-20T19:51:14.146Z,13.50
2023-05-20T19:53:41.075Z,13.40
2023-05-20T19:56:08.195Z,13.40
2023-05-20T19:58:35.398Z,13.30
2023-05-20T20:01:02.782Z,13.30
2023-05-20T20:03:29.753Z,13.30
2023-05-20T20:05:57.273Z,13.20
2023-05-20T20:08:24.402Z,13.20
2023-05-20T20:10:51.486Z,13.20
2023-05-20T20:13:18.494Z,13.20
2023-05-20T20:15:45.627Z,13.20
2023-05-20T20:18:12.623Z,13.20
2023-05-20T20:20:42.721Z,13.10
2023-05-20T20:23:10.330Z,13.10
2023-05-20T20:25:39.178Z,13.00
2023-05-20T20:28:07.465Z,12.90
2023-05-20T20:30:35.317Z,12.90
2023-05-20T20:33:06.368Z,12.80
2023-05-20T20:35:34.225Z,12.70
2023-05-20T20:38:08.486Z,12.70
2023-05-20T20:40:39.648Z,12.60
2023-05-20T20:43:07.097Z,12.60
2023-05-20T20:45:36.922Z,12.50
2023-05-20T20:48:08.403Z,12.50
2023-05-20T20:50:36.646Z,12.40
2023-05-20T20:53:03.678Z,12.40
2023-05-20T20:55:30.815Z,12.40
2023-05-20T20:57:58.419Z,12.40
2023-05-20T21:00:27.052Z,12.30
2023-05-20T21:02:54.086Z,12.30
2023-05-20T21:05:21.720Z,12.40
2023-05-20T21:07:52.673Z,12.30
2023-05-20T21:10:19.727Z,12.30
2023-05-20T21:12:46.698Z,12.30
2023-05-20T21:15:15.152Z,12.30
2023-05-20T21:17:42.253Z,12.20
2023-05-20T21:20:09.928Z,12.20
2023-05-20T21:22:36.943Z,12.30
2023-05-20T21:25:04.220Z,12.20
2023-05-20T21:27:31.217Z,12.20
2023-05-20T21:29:58.188Z,12.20
2023-05-20T21:32:25.253Z,12.10
2023-05-20T21:34:52.234Z,12.10
2023-05-20T21:37:19.217Z,12.10
2023-05-20T21:39:46.228Z,12.00
2023-05-20T21:42:13.411Z,11.90
2023-05-20T21:44:40.357Z,11.80
2023-05-20T21:47:07.291Z,11.80
2023-05-20T21:49:34.283Z,11.70
2023-05-20T21:52:01.263Z,11.70
2023-05-20T21:54:28.329Z,11.70
2023-05-20T21:56:55.377Z,11.70
2023-05-20T21:59:22.334Z,11.70
2023-05-20T22:01:51.004Z,11.70
2023-05-20T22:04:19.018Z,11.80
2023-05-20T22:06:45.946Z,11.70
2023-05-20T22:09:12.941Z,11.60
2023-05-20T22:11:39.889Z,11.60
2023-05-20T22:14:06.840Z,11.60
2023-05-20T22:16:34.290Z,11.60
2023-05-20T22:19:02.755Z,11.60
2023-05-20T22:21:32.087Z,11.50
2023-05-20T22:24:01.265Z,11.40
2023-05-20T22:26:28.564Z,11.40
2023-05-20T22:28:55.545Z,11.40
2023-05-20T22:31:22.544Z,11.30
2023-05-20T22:33:49.672Z,11.30
2023-05-20T22:36:16.616Z,11.40
2023-05-20T22:38:43.591Z,11.40
2023-05-20T22:41:10.916Z,11.30
2023-05-20T22:43:37.885Z,11.20
2023-05-20T22:46:04.869Z,11.20
2023-05-20T22:48:31.905Z,11.20
2023-05-20T22:50:58.875Z,11.20
2023-05-20T22:53:25.815Z,11.20
2023-05-20T22:55:52.978Z,11.30
2023-05-20T22:58:19.883Z,11.30
2023-05-20T23:00:46.956Z,11.20
2023-05-20T23:03:13.972Z,11.10
2023-05-20T23:05:41.117Z,11.00
2023-05-20T23:08:08.126Z,10.90
2023-05-20T23:10:35.226Z,10.80
2023-05-20T23:13:02.276Z,10.80
2023-05-20T23:15:31.170Z,10.70
2023-05-20T23:17:58.786Z,10.70
2023-05-20T23:20:25.901Z,10.70
2023-05-20T23:22:52.956Z,10.60
2023-05-20T23:25:20.094Z,10.60
2023-05-20T23:27:47.080Z,10.50
2023-05-20T23:30:14.294Z,10.50
2023-05-20T23:32:41.578Z,10.40
2023-05-20T23:35:11.765Z,10.40
2023-05-20T23:37:39.076Z,10.30
2023-05-20T23:40:09.210Z,10.30
2023-05-20T23:42:36.937Z,10.20
2023-05-20T23:45:04.719Z,10.20
2023-05-20T23:47:32.303Z,10.20
2023-05-20T23:50:00.042Z,10.20
2023-05-20T23:52:27.117Z,10.20
2023-05-20T23:54:54.230Z,10.10
2023-05-20T23:57:21.257Z,10.10
2023-05-20T23:59:51.428Z,10.20
